sensor_id;sensor_type;location;lat;lon;timestamp;temperature;humidity
12981;DHT22;6555;50.468;8.480;2022-12-17T00:04:59;-5.20;56.20
12981;DHT22;6555;50.468;8.480;2022-12-17T00:10:20;-5.10;56.40
12981;DHT22;6555;50.468;8.480;2022-12-17T00:15:51;-5.10;56.40
12981;DHT22;6555;50.468;8.480;2022-12-17T00:21:26;-5.10;56.40
12981;DHT22;6555;50.468;8.480;2022-12-17T00:26:46;-5.00;56.40
12981;DHT22;6555;50.468;8.480;2022-12-17T00:32:08;-5.00;56.50
12981;DHT22;6555;50.468;8.480;2022-12-17T00:37:29;-5.00;56.50
12981;DHT22;6555;50.468;8.480;2022-12-17T00:42:58;-5.00;56.50
12981;DHT22;6555;50.468;8.480;2022-12-17T00:48:23;-4.90;56.50
12981;DHT22;6555;50.468;8.480;2022-12-17T00:53:44;-4.90;56.50
12981;DHT22;6555;50.468;8.480;2022-12-17T00:59:04;-4.90;56.40
12981;DHT22;6555;50.468;8.480;2022-12-17T01:04:26;-4.90;56.30
12981;DHT22;6555;50.468;8.480;2022-12-17T01:09:46;-4.90;56.20
12981;DHT22;6555;50.468;8.480;2022-12-17T01:15:07;-4.90;56.40
12981;DHT22;6555;50.468;8.480;2022-12-17T01:20:29;-4.90;56.40
12981;DHT22;6555;50.468;8.480;2022-12-17T01:25:54;-4.90;56.40
12981;DHT22;6555;50.468;8.480;2022-12-17T01:31:14;-5.00;56.50
12981;DHT22;6555;50.468;8.480;2022-12-17T01:36:37;-4.90;56.80
12981;DHT22;6555;50.468;8.480;2022-12-17T01:41:58;-4.90;57.00
12981;DHT22;6555;50.468;8.480;2022-12-17T01:47:20;-4.80;56.90
12981;DHT22;6555;50.468;8.480;2022-12-17T01:52:41;-4.80;56.80
12981;DHT22;6555;50.468;8.480;2022-12-17T01:58:02;-4.80;56.80
12981;DHT22;6555;50.468;8.480;2022-12-17T02:03:23;-4.80;56.80
12981;DHT22;6555;50.468;8.480;2022-12-17T02:08:53;-4.80;57.00
12981;DHT22;6555;50.468;8.480;2022-12-17T02:14:21;-4.80;57.10
12981;DHT22;6555;50.468;8.480;2022-12-17T02:19:49;-4.70;57.30
12981;DHT22;6555;50.468;8.480;2022-12-17T02:25:22;-4.70;57.40
12981;DHT22;6555;50.468;8.480;2022-12-17T02:30:46;-4.60;57.40
12981;DHT22;6555;50.468;8.480;2022-12-17T02:36:07;-4.50;57.40
12981;DHT22;6555;50.468;8.480;2022-12-17T02:41:30;-4.50;57.40
12981;DHT22;6555;50.468;8.480;2022-12-17T02:46:57;-4.50;57.40
12981;DHT22;6555;50.468;8.480;2022-12-17T02:52:20;-4.50;57.30
12981;DHT22;6555;50.468;8.480;2022-12-17T02:57:41;-4.50;57.40
12981;DHT22;6555;50.468;8.480;2022-12-17T03:03:03;-4.50;57.60
12981;DHT22;6555;50.468;8.480;2022-12-17T03:08:24;-4.40;57.60
12981;DHT22;6555;50.468;8.480;2022-12-17T03:13:44;-4.40;57.60
12981;DHT22;6555;50.468;8.480;2022-12-17T03:19:08;-4.30;57.70
12981;DHT22;6555;50.468;8.480;2022-12-17T03:24:28;-4.20;57.70
12981;DHT22;6555;50.468;8.480;2022-12-17T03:29:48;-4.20;57.70
12981;DHT22;6555;50.468;8.480;2022-12-17T03:35:27;-4.20;57.50
12981;DHT22;6555;50.468;8.480;2022-12-17T03:41:04;-4.20;57.50
12981;DHT22;6555;50.468;8.480;2022-12-17T03:46:24;-4.20;57.40
12981;DHT22;6555;50.468;8.480;2022-12-17T03:51:46;-4.20;57.30
12981;DHT22;6555;50.468;8.480;2022-12-17T03:57:07;-4.20;57.40
12981;DHT22;6555;50.468;8.480;2022-12-17T04:02:27;-4.20;57.50
12981;DHT22;6555;50.468;8.480;2022-12-17T04:07:49;-4.20;57.50
12981;DHT22;6555;50.468;8.480;2022-12-17T04:13:10;-4.20;57.60
12981;DHT22;6555;50.468;8.480;2022-12-17T04:18:30;-4.10;57.90
12981;DHT22;6555;50.468;8.480;2022-12-17T04:23:52;-4.10;57.90
12981;DHT22;6555;50.468;8.480;2022-12-17T04:29:13;-4.00;57.90
12981;DHT22;6555;50.468;8.480;2022-12-17T04:34:33;-4.00;57.90
12981;DHT22;6555;50.468;8.480;2022-12-17T04:39:55;-3.90;58.00
12981;DHT22;6555;50.468;8.480;2022-12-17T04:45:15;-3.90;58.00
12981;DHT22;6555;50.468;8.480;2022-12-17T04:50:36;-3.80;58.00
12981;DHT22;6555;50.468;8.480;2022-12-17T04:56:12;-3.80;58.10
12981;DHT22;6555;50.468;8.480;2022-12-17T05:01:46;-3.70;58.20
12981;DHT22;6555;50.468;8.480;2022-12-17T05:07:18;-3.70;58.00
12981;DHT22;6555;50.468;8.480;2022-12-17T05:12:39;-3.60;57.90
12981;DHT22;6555;50.468;8.480;2022-12-17T05:18:03;-3.60;58.00
12981;DHT22;6555;50.468;8.480;2022-12-17T05:23:24;-3.60;58.00
12981;DHT22;6555;50.468;8.480;2022-12-17T05:28:46;-3.60;58.00
12981;DHT22;6555;50.468;8.480;2022-12-17T05:34:08;-3.50;58.20
12981;DHT22;6555;50.468;8.480;2022-12-17T05:39:28;-3.50;58.30
12981;DHT22;6555;50.468;8.480;2022-12-17T05:44:50;-3.40;58.10
12981;DHT22;6555;50.468;8.480;2022-12-17T05:50:10;-3.40;58.10
12981;DHT22;6555;50.468;8.480;2022-12-17T05:55:31;-3.40;58.00
12981;DHT22;6555;50.468;8.480;2022-12-17T06:00:56;-3.40;57.90
12981;DHT22;6555;50.468;8.480;2022-12-17T06:06:17;-3.40;58.00
12981;DHT22;6555;50.468;8.480;2022-12-17T06:11:38;-3.40;58.00
12981;DHT22;6555;50.468;8.480;2022-12-17T06:17:04;-3.40;58.10
12981;DHT22;6555;50.468;8.480;2022-12-17T06:22:25;-3.40;58.10
12981;DHT22;6555;50.468;8.480;2022-12-17T06:27:45;-3.40;58.20
12981;DHT22;6555;50.468;8.480;2022-12-17T06:33:08;-3.30;58.20
12981;DHT22;6555;50.468;8.480;2022-12-17T06:38:29;-3.30;58.10
12981;DHT22;6555;50.468;8.480;2022-12-17T06:43:49;-3.40;57.80
12981;DHT22;6555;50.468;8.480;2022-12-17T06:49:12;-3.40;57.70
12981;DHT22;6555;50.468;8.480;2022-12-17T06:54:32;-3.50;57.80
12981;DHT22;6555;50.468;8.480;2022-12-17T06:59:53;-3.50;57.90
12981;DHT22;6555;50.468;8.480;2022-12-17T07:05:15;-3.60;57.90
12981;DHT22;6555;50.468;8.480;2022-12-17T07:10:35;-3.50;57.90
12981;DHT22;6555;50.468;8.480;2022-12-17T07:15:57;-3.60;57.80
12981;DHT22;6555;50.468;8.480;2022-12-17T07:21:19;-3.60;57.90
12981;DHT22;6555;50.468;8.480;2022-12-17T07:26:40;-3.60;57.80
12981;DHT22;6555;50.468;8.480;2022-12-17T07:32:00;-3.60;57.90
12981;DHT22;6555;50.468;8.480;2022-12-17T07:37:22;-3.60;58.00
12981;DHT22;6555;50.468;8.480;2022-12-17T07:42:42;-3.60;58.00
12981;DHT22;6555;50.468;8.480;2022-12-17T07:48:03;-3.60;57.90
12981;DHT22;6555;50.468;8.480;2022-12-17T07:53:25;-3.60;58.00
12981;DHT22;6555;50.468;8.480;2022-12-17T07:58:46;-3.50;58.20
12981;DHT22;6555;50.468;8.480;2022-12-17T08:04:06;-3.50;58.30
12981;DHT22;6555;50.468;8.480;2022-12-17T08:09:28;-3.50;58.40
12981;DHT22;6555;50.468;8.480;2022-12-17T08:14:48;-3.40;58.50
12981;DHT22;6555;50.468;8.480;2022-12-17T08:20:09;-3.40;59.00
12981;DHT22;6555;50.468;8.480;2022-12-17T08:25:30;-3.40;58.30
12981;DHT22;6555;50.468;8.480;2022-12-17T08:30:51;-3.30;58.60
12981;DHT22;6555;50.468;8.480;2022-12-17T08:36:12;-3.20;58.70
12981;DHT22;6555;50.468;8.480;2022-12-17T08:41:33;-3.20;58.10
12981;DHT22;6555;50.468;8.480;2022-12-17T08:46:58;-3.30;57.90
12981;DHT22;6555;50.468;8.480;2022-12-17T08:52:18;-3.30;58.00
12981;DHT22;6555;50.468;8.480;2022-12-17T08:57:40;-3.30;57.90
12981;DHT22;6555;50.468;8.480;2022-12-17T09:03:15;-3.40;57.80
12981;DHT22;6555;50.468;8.480;2022-12-17T09:08:36;-3.50;57.70
12981;DHT22;6555;50.468;8.480;2022-12-17T09:13:57;-3.60;57.70
12981;DHT22;6555;50.468;8.480;2022-12-17T09:19:18;-3.70;58.60
12981;DHT22;6555;50.468;8.480;2022-12-17T09:24:38;-3.70;58.10
12981;DHT22;6555;50.468;8.480;2022-12-17T09:30:00;-3.70;58.00
12981;DHT22;6555;50.468;8.480;2022-12-17T09:35:21;-3.70;58.10
12981;DHT22;6555;50.468;8.480;2022-12-17T09:40:45;-3.70;58.20
12981;DHT22;6555;50.468;8.480;2022-12-17T09:46:08;-3.60;58.40
12981;DHT22;6555;50.468;8.480;2022-12-17T09:51:33;-3.60;58.40
12981;DHT22;6555;50.468;8.480;2022-12-17T09:56:55;-3.50;58.40
12981;DHT22;6555;50.468;8.480;2022-12-17T10:02:18;-3.50;58.40
12981;DHT22;6555;50.468;8.480;2022-12-17T10:07:52;-3.50;58.30
12981;DHT22;6555;50.468;8.480;2022-12-17T10:13:15;-3.60;58.10
12981;DHT22;6555;50.468;8.480;2022-12-17T10:18:38;-3.60;58.20
12981;DHT22;6555;50.468;8.480;2022-12-17T10:24:06;-3.60;58.40
12981;DHT22;6555;50.468;8.480;2022-12-17T10:29:26;-3.50;58.70
12981;DHT22;6555;50.468;8.480;2022-12-17T10:34:52;-3.50;58.80
12981;DHT22;6555;50.468;8.480;2022-12-17T10:40:21;-3.30;58.80
12981;DHT22;6555;50.468;8.480;2022-12-17T10:45:52;-3.30;58.60
12981;DHT22;6555;50.468;8.480;2022-12-17T10:51:19;-3.20;58.80
12981;DHT22;6555;50.468;8.480;2022-12-17T10:56:41;-3.10;59.00
12981;DHT22;6555;50.468;8.480;2022-12-17T11:02:01;-3.00;59.00
12981;DHT22;6555;50.468;8.480;2022-12-17T11:07:26;-2.90;59.10
12981;DHT22;6555;50.468;8.480;2022-12-17T11:12:51;-2.80;59.10
12981;DHT22;6555;50.468;8.480;2022-12-17T11:18:16;-2.70;58.90
12981;DHT22;6555;50.468;8.480;2022-12-17T11:23:43;-2.60;58.80
12981;DHT22;6555;50.468;8.480;2022-12-17T11:29:09;-2.60;58.90
12981;DHT22;6555;50.468;8.480;2022-12-17T11:34:46;-2.50;59.00
12981;DHT22;6555;50.468;8.480;2022-12-17T11:40:19;-2.50;59.00
12981;DHT22;6555;50.468;8.480;2022-12-17T11:45:54;-2.40;59.00
12981;DHT22;6555;50.468;8.480;2022-12-17T11:51:19;-2.30;59.10
12981;DHT22;6555;50.468;8.480;2022-12-17T11:56:48;-2.20;59.10
12981;DHT22;6555;50.468;8.480;2022-12-17T12:02:21;-2.20;59.30
12981;DHT22;6555;50.468;8.480;2022-12-17T12:07:53;-2.10;59.50
12981;DHT22;6555;50.468;8.480;2022-12-17T12:13:28;-1.90;59.50
12981;DHT22;6555;50.468;8.480;2022-12-17T12:19:02;-1.90;59.10
12981;DHT22;6555;50.468;8.480;2022-12-17T12:24:37;-1.90;58.90
12981;DHT22;6555;50.468;8.480;2022-12-17T12:30:04;-1.80;59.00
12981;DHT22;6555;50.468;8.480;2022-12-17T12:35:26;-1.80;59.10
12981;DHT22;6555;50.468;8.480;2022-12-17T12:40:52;-1.70;59.30
12981;DHT22;6555;50.468;8.480;2022-12-17T12:46:16;-1.70;59.20
12981;DHT22;6555;50.468;8.480;2022-12-17T12:51:39;-1.70;58.90
12981;DHT22;6555;50.468;8.480;2022-12-17T12:57:00;-1.70;58.80
12981;DHT22;6555;50.468;8.480;2022-12-17T13:02:28;-1.80;58.60
12981;DHT22;6555;50.468;8.480;2022-12-17T13:08:00;-1.90;58.70
12981;DHT22;6555;50.468;8.480;2022-12-17T13:13:10;-1.90;58.90
12981;DHT22;6555;50.468;8.480;2022-12-17T13:18:20;-1.90;59.00
12981;DHT22;6555;50.468;8.480;2022-12-17T13:23:30;-1.90;59.40
12981;DHT22;6555;50.468;8.480;2022-12-17T13:28:34;-1.80;59.40
12981;DHT22;6555;50.468;8.480;2022-12-17T13:33:44;-1.70;59.40
12981;DHT22;6555;50.468;8.480;2022-12-17T13:38:54;-1.60;59.50
12981;DHT22;6555;50.468;8.480;2022-12-17T13:44:02;-1.60;59.50
12981;DHT22;6555;50.468;8.480;2022-12-17T13:49:18;-1.50;59.40
12981;DHT22;6555;50.468;8.480;2022-12-17T13:54:21;-1.40;59.40
12981;DHT22;6555;50.468;8.480;2022-12-17T13:59:24;-1.30;59.40
12981;DHT22;6555;50.468;8.480;2022-12-17T14:04:29;-1.30;59.30
12981;DHT22;6555;50.468;8.480;2022-12-17T14:09:36;-1.30;59.20
12981;DHT22;6555;50.468;8.480;2022-12-17T14:14:43;-1.30;59.20
12981;DHT22;6555;50.468;8.480;2022-12-17T14:19:53;-1.30;59.20
12981;DHT22;6555;50.468;8.480;2022-12-17T14:24:58;-1.20;59.30
12981;DHT22;6555;50.468;8.480;2022-12-17T14:30:17;-1.20;59.30
12981;DHT22;6555;50.468;8.480;2022-12-17T14:35:27;-1.10;59.40
12981;DHT22;6555;50.468;8.480;2022-12-17T14:40:31;-1.10;59.40
12981;DHT22;6555;50.468;8.480;2022-12-17T14:45:34;-1.10;59.00
12981;DHT22;6555;50.468;8.480;2022-12-17T14:50:59;-1.10;59.00
12981;DHT22;6555;50.468;8.480;2022-12-17T14:56:03;-1.10;59.20
12981;DHT22;6555;50.468;8.480;2022-12-17T15:01:09;-1.10;59.10
12981;DHT22;6555;50.468;8.480;2022-12-17T15:06:20;-1.10;59.20
12981;DHT22;6555;50.468;8.480;2022-12-17T15:11:38;-1.10;59.20
12981;DHT22;6555;50.468;8.480;2022-12-17T15:16:43;-1.00;59.10
12981;DHT22;6555;50.468;8.480;2022-12-17T15:21:53;-1.00;58.90
12981;DHT22;6555;50.468;8.480;2022-12-17T15:26:59;-1.10;58.70
12981;DHT22;6555;50.468;8.480;2022-12-17T15:32:06;-1.20;58.40
12981;DHT22;6555;50.468;8.480;2022-12-17T15:37:16;-1.20;58.30
12981;DHT22;6555;50.468;8.480;2022-12-17T15:42:31;-1.30;58.60
12981;DHT22;6555;50.468;8.480;2022-12-17T15:47:52;-1.40;58.40
12981;DHT22;6555;50.468;8.480;2022-12-17T15:52:57;-1.50;58.30
12981;DHT22;6555;50.468;8.480;2022-12-17T15:58:00;-1.50;58.50
12981;DHT22;6555;50.468;8.480;2022-12-17T16:03:03;-1.60;58.50
12981;DHT22;6555;50.468;8.480;2022-12-17T16:08:07;-1.60;58.50
12981;DHT22;6555;50.468;8.480;2022-12-17T16:13:11;-1.60;58.50
12981;DHT22;6555;50.468;8.480;2022-12-17T16:18:16;-1.60;58.50
12981;DHT22;6555;50.468;8.480;2022-12-17T16:23:20;-1.70;58.70
12981;DHT22;6555;50.468;8.480;2022-12-17T16:28:23;-1.60;58.60
12981;DHT22;6555;50.468;8.480;2022-12-17T16:33:27;-1.70;58.40
12981;DHT22;6555;50.468;8.480;2022-12-17T16:38:42;-1.70;58.50
12981;DHT22;6555;50.468;8.480;2022-12-17T16:43:47;-1.80;58.40
12981;DHT22;6555;50.468;8.480;2022-12-17T16:48:50;-1.80;58.50
12981;DHT22;6555;50.468;8.480;2022-12-17T16:53:54;-1.80;58.50
12981;DHT22;6555;50.468;8.480;2022-12-17T16:58:57;-1.80;58.40
12981;DHT22;6555;50.468;8.480;2022-12-17T17:04:00;-1.80;59.00
12981;DHT22;6555;50.468;8.480;2022-12-17T17:09:07;-1.90;58.30
12981;DHT22;6555;50.468;8.480;2022-12-17T17:14:10;-1.90;58.30
12981;DHT22;6555;50.468;8.480;2022-12-17T17:19:13;-2.00;57.90
12981;DHT22;6555;50.468;8.480;2022-12-17T17:24:19;-2.10;57.70
12981;DHT22;6555;50.468;8.480;2022-12-17T17:29:23;-2.30;57.60
12981;DHT22;6555;50.468;8.480;2022-12-17T17:34:26;-2.40;57.70
12981;DHT22;6555;50.468;8.480;2022-12-17T17:39:30;-2.50;57.90
12981;DHT22;6555;50.468;8.480;2022-12-17T17:44:35;-2.60;57.80
12981;DHT22;6555;50.468;8.480;2022-12-17T17:49:38;-2.60;57.90
12981;DHT22;6555;50.468;8.480;2022-12-17T17:54:43;-2.70;57.90
12981;DHT22;6555;50.468;8.480;2022-12-17T17:59:46;-2.70;57.90
12981;DHT22;6555;50.468;8.480;2022-12-17T18:04:49;-2.80;57.70
12981;DHT22;6555;50.468;8.480;2022-12-17T18:09:53;-2.90;57.50
12981;DHT22;6555;50.468;8.480;2022-12-17T18:14:56;-3.00;57.30
12981;DHT22;6555;50.468;8.480;2022-12-17T18:20:18;-3.20;57.10
12981;DHT22;6555;50.468;8.480;2022-12-17T18:25:22;-3.40;57.10
12981;DHT22;6555;50.468;8.480;2022-12-17T18:30:25;-3.50;57.20
12981;DHT22;6555;50.468;8.480;2022-12-17T18:35:28;-3.60;57.20
12981;DHT22;6555;50.468;8.480;2022-12-17T18:40:34;-3.70;57.40
12981;DHT22;6555;50.468;8.480;2022-12-17T18:45:37;-3.80;57.60
12981;DHT22;6555;50.468;8.480;2022-12-17T18:50:40;-3.80;57.60
12981;DHT22;6555;50.468;8.480;2022-12-17T18:55:44;-3.80;57.50
12981;DHT22;6555;50.468;8.480;2022-12-17T19:00:47;-3.90;57.20
12981;DHT22;6555;50.468;8.480;2022-12-17T19:05:51;-4.00;57.10
12981;DHT22;6555;50.468;8.480;2022-12-17T19:11:02;-4.10;57.20
12981;DHT22;6555;50.468;8.480;2022-12-17T19:16:08;-4.10;58.10
12981;DHT22;6555;50.468;8.480;2022-12-17T19:21:12;-4.10;57.60
12981;DHT22;6555;50.468;8.480;2022-12-17T19:26:20;-4.10;57.50
12981;DHT22;6555;50.468;8.480;2022-12-17T19:31:25;-4.10;57.50
12981;DHT22;6555;50.468;8.480;2022-12-17T19:36:30;-4.10;57.30
12981;DHT22;6555;50.468;8.480;2022-12-17T19:41:35;-4.20;56.90
12981;DHT22;6555;50.468;8.480;2022-12-17T19:46:39;-4.30;57.00
12981;DHT22;6555;50.468;8.480;2022-12-17T19:51:42;-4.40;57.70
12981;DHT22;6555;50.468;8.480;2022-12-17T19:56:47;-4.50;57.10
12981;DHT22;6555;50.468;8.480;2022-12-17T20:01:50;-4.50;57.10
12981;DHT22;6555;50.468;8.480;2022-12-17T20:06:53;-4.60;57.10
12981;DHT22;6555;50.468;8.480;2022-12-17T20:11:58;-4.70;57.20
12981;DHT22;6555;50.468;8.480;2022-12-17T20:17:02;-4.80;57.10
12981;DHT22;6555;50.468;8.480;2022-12-17T20:22:06;-4.90;57.30
12981;DHT22;6555;50.468;8.480;2022-12-17T20:27:12;-4.90;57.40
12981;DHT22;6555;50.468;8.480;2022-12-17T20:32:15;-4.90;57.40
12981;DHT22;6555;50.468;8.480;2022-12-17T20:37:20;-4.90;57.40
12981;DHT22;6555;50.468;8.480;2022-12-17T20:42:24;-4.90;57.20
12981;DHT22;6555;50.468;8.480;2022-12-17T20:47:27;-4.90;56.80
12981;DHT22;6555;50.468;8.480;2022-12-17T20:52:31;-5.10;56.90
12981;DHT22;6555;50.468;8.480;2022-12-17T20:57:35;-5.20;56.60
12981;DHT22;6555;50.468;8.480;2022-12-17T21:02:38;-5.30;56.70
12981;DHT22;6555;50.468;8.480;2022-12-17T21:07:41;-5.40;56.80
12981;DHT22;6555;50.468;8.480;2022-12-17T21:12:46;-5.40;57.10
12981;DHT22;6555;50.468;8.480;2022-12-17T21:18:07;-5.30;57.30
12981;DHT22;6555;50.468;8.480;2022-12-17T21:23:10;-5.30;57.10
12981;DHT22;6555;50.468;8.480;2022-12-17T21:28:14;-5.30;57.00
12981;DHT22;6555;50.468;8.480;2022-12-17T21:33:26;-5.40;56.60
12981;DHT22;6555;50.468;8.480;2022-12-17T21:38:31;-5.50;56.60
12981;DHT22;6555;50.468;8.480;2022-12-17T21:43:36;-5.60;56.40
12981;DHT22;6555;50.468;8.480;2022-12-17T21:48:41;-5.70;56.60
12981;DHT22;6555;50.468;8.480;2022-12-17T21:53:45;-5.80;56.70
12981;DHT22;6555;50.468;8.480;2022-12-17T21:58:54;-5.80;56.80
12981;DHT22;6555;50.468;8.480;2022-12-17T22:03:58;-5.80;56.80
12981;DHT22;6555;50.468;8.480;2022-12-17T22:09:01;-5.80;56.90
12981;DHT22;6555;50.468;8.480;2022-12-17T22:14:28;-5.80;57.00
12981;DHT22;6555;50.468;8.480;2022-12-17T22:19:32;-5.70;57.10
12981;DHT22;6555;50.468;8.480;2022-12-17T22:24:35;-5.70;56.70
12981;DHT22;6555;50.468;8.480;2022-12-17T22:29:39;-5.80;56.50
12981;DHT22;6555;50.468;8.480;2022-12-17T22:35:00;-5.80;56.80
12981;DHT22;6555;50.468;8.480;2022-12-17T22:40:23;-5.80;56.80
12981;DHT22;6555;50.468;8.480;2022-12-17T22:45:47;-5.80;56.70
12981;DHT22;6555;50.468;8.480;2022-12-17T22:50:50;-5.90;56.50
12981;DHT22;6555;50.468;8.480;2022-12-17T22:56:08;-5.90;56.60
12981;DHT22;6555;50.468;8.480;2022-12-17T23:01:33;-6.00;56.50
12981;DHT22;6555;50.468;8.480;2022-12-17T23:06:36;-6.00;56.60
12981;DHT22;6555;50.468;8.480;2022-12-17T23:11:40;-6.00;56.70
12981;DHT22;6555;50.468;8.480;2022-12-17T23:16:44;-6.00;56.70
12981;DHT22;6555;50.468;8.480;2022-12-17T23:21:47;-6.00;56.60
12981;DHT22;6555;50.468;8.480;2022-12-17T23:26:50;-6.10;56.50
12981;DHT22;6555;50.468;8.480;2022-12-17T23:31:55;-6.10;56.40
12981;DHT22;6555;50.468;8.480;2022-12-17T23:36:58;-6.10;56.40
12981;DHT22;6555;50.468;8.480;2022-12-17T23:42:00;-6.10;56.30
12981;DHT22;6555;50.468;8.480;2022-12-17T23:47:07;-6.20;56.20
12981;DHT22;6555;50.468;8.480;2022-12-17T23:52:10;-6.20;56.30
12981;DHT22;6555;50.468;8.480;2022-12-17T23:57:14;-6.20;56.40
